Algoma, Wisconsin
Current Conditions -  °F | °C
As of 6:55 AM on Wednesday 22 Oct 2014 (Local Time) from KSUE Reporting Station
Clear Clear  
Wind Chill:   Ceiling: Unl
Heat Index:   Visibility: 10mi
Dew Point: -1°   Wind: 5mph
Humidity: 81%   Direction: 120°ESE
Pressure: 30.36"   Gusts: NA
Location:  44.61°N, 87.43°W
Report Text: KSUE 221155Z AUTO 12004KT 10SM CLR 02/M01 A3036 RMK AO1 10040 20010 52010
Loading
Personal Weather Stations






























Interactive Weather Map New forecast layout! Learn more

10-Day Weather Forecast

Advertisements
Track Severe Weather on mobile